createdAt,value
2022-08-16T00:01:43.589Z,97820.69
2022-08-16T00:04:12.378Z,97821.78
2022-08-16T00:06:40.590Z,97821.50
2022-08-16T00:09:10.826Z,97826.16
2022-08-16T00:11:43.080Z,97827.25
2022-08-16T00:14:24.208Z,97831.25
2022-08-16T00:17:15.566Z,97816.47
2022-08-16T00:19:47.581Z,97829.41
2022-08-16T00:22:25.348Z,97821.63
2022-08-16T00:24:54.774Z,97822.44
2022-08-16T00:27:23.824Z,97826.91
2022-08-16T00:30:00.803Z,97816.13
2022-08-16T00:32:40.085Z,97823.00
2022-08-16T00:35:15.985Z,97821.94
2022-08-16T00:37:56.630Z,97811.22
2022-08-16T00:40:50.737Z,97805.69
2022-08-16T00:43:43.340Z,97805.13
2022-08-16T00:47:02.441Z,97812.53
2022-08-16T00:49:39.613Z,97816.13
2022-08-16T00:52:30.310Z,97811.47
2022-08-16T00:55:00.769Z,97799.41
2022-08-16T00:57:58.773Z,97809.53
2022-08-16T01:00:19.956Z,97806.38
2022-08-16T01:02:48.992Z,97812.47
2022-08-16T01:05:16.587Z,97822.59
2022-08-16T01:07:51.861Z,97813.31
2022-08-16T01:10:31.591Z,97805.47
2022-08-16T01:13:15.762Z,97815.31
2022-08-16T01:16:10.826Z,97821.50
2022-08-16T01:19:07.908Z,97810.25
2022-08-16T01:22:48.426Z,97810.53
2022-08-16T01:25:41.176Z,97809.97
2022-08-16T01:28:20.013Z,97811.09
2022-08-16T01:30:57.460Z,97807.97
2022-08-16T01:33:33.499Z,97813.75
2022-08-16T01:36:11.973Z,97798.78
2022-08-16T01:38:56.786Z,97811.56
2022-08-16T01:41:31.361Z,97820.34
2022-08-16T01:44:01.047Z,97817.81
2022-08-16T01:46:44.142Z,97807.81
2022-08-16T01:49:42.854Z,97805.06
2022-08-16T01:52:29.654Z,97808.66
2022-08-16T01:54:59.788Z,97813.31
2022-08-16T01:57:31.712Z,97819.88
2022-08-16T02:00:01.002Z,97829.78
2022-08-16T02:02:29.106Z,97828.44
2022-08-16T02:05:00.168Z,97826.75
2022-08-16T02:07:28.265Z,97823.50
2022-08-16T02:09:59.808Z,97819.84
2022-08-16T02:12:50.072Z,97820.31
2022-08-16T02:15:25.937Z,97815.13
2022-08-16T02:18:01.167Z,97820.13
2022-08-16T02:20:35.567Z,97827.16
2022-08-16T02:23:07.940Z,97814.63
2022-08-16T02:25:50.847Z,97818.66
2022-08-16T02:28:23.619Z,97816.19
2022-08-16T02:30:53.437Z,97819.22
2022-08-16T02:33:42.909Z,97817.91
2022-08-16T02:36:49.851Z,97819.56
2022-08-16T02:39:05.723Z,97816.28
2022-08-16T02:41:37.371Z,97818.88
2022-08-16T02:44:07.555Z,97820.50
2022-08-16T02:46:34.955Z,97817.97
2022-08-16T02:49:02.945Z,97813.34
2022-08-16T02:51:35.759Z,97804.28
2022-08-16T02:54:04.150Z,97811.56
2022-08-16T02:56:33.263Z,97817.16
2022-08-16T02:59:02.314Z,97808.59
2022-08-16T03:01:39.157Z,97810.00
2022-08-16T03:04:41.434Z,97805.31
2022-08-16T03:06:56.835Z,97796.25
2022-08-16T03:09:28.653Z,97798.72
2022-08-16T03:11:57.796Z,97799.63
2022-08-16T03:14:26.217Z,97798.41
2022-08-16T03:16:59.600Z,97791.28
2022-08-16T03:19:48.196Z,97799.81
2022-08-16T03:22:28.796Z,97798.44
2022-08-16T03:25:02.342Z,97783.66
2022-08-16T03:27:32.988Z,97786.47
2022-08-16T03:30:21.233Z,97785.25
2022-08-16T03:32:51.520Z,97784.91
2022-08-16T03:35:32.402Z,97786.00
2022-08-16T03:38:32.674Z,97777.47
2022-08-16T03:40:56.358Z,97775.31
2022-08-16T03:43:52.003Z,97789.56
2022-08-16T03:46:48.214Z,97776.44
2022-08-16T03:49:05.240Z,97779.38
2022-08-16T03:51:34.967Z,97779.44
2022-08-16T03:54:04.717Z,97782.13
2022-08-16T03:56:57.697Z,97779.03
2022-08-16T03:59:29.279Z,97782.75
2022-08-16T04:02:00.891Z,97772.16
2022-08-16T04:04:33.079Z,97786.13
2022-08-16T04:07:07.523Z,97782.88
2022-08-16T04:09:38.105Z,97780.13
2022-08-16T04:12:11.390Z,97775.50
2022-08-16T04:14:55.209Z,97778.03
2022-08-16T04:17:24.210Z,97771.69
2022-08-16T04:19:54.897Z,97781.75
2022-08-16T04:22:27.448Z,97780.44
2022-08-16T04:24:55.576Z,97787.25
2022-08-16T04:27:31.506Z,97779.13
2022-08-16T04:30:02.855Z,97770.78
2022-08-16T04:32:31.492Z,97776.84
2022-08-16T04:35:01.205Z,97787.63
2022-08-16T04:37:32.209Z,97788.66
2022-08-16T04:40:21.838Z,97777.84
2022-08-16T04:42:54.831Z,97776.66
2022-08-16T04:45:35.642Z,97774.94
2022-08-16T04:48:05.392Z,97782.88
2022-08-16T04:50:32.770Z,97783.44
2022-08-16T04:53:00.570Z,97787.69
2022-08-16T04:55:37.870Z,97792.22
2022-08-16T04:58:44.277Z,97791.69
2022-08-16T05:00:56.974Z,97784.50
2022-08-16T05:03:24.580Z,97784.50
2022-08-16T05:05:59.519Z,97790.22
2022-08-16T05:08:33.177Z,97785.03
2022-08-16T05:11:08.260Z,97771.56
2022-08-16T05:13:42.557Z,97785.19
2022-08-16T05:16:24.102Z,97796.53
2022-08-16T05:18:56.538Z,97787.25
2022-08-16T05:21:26.964Z,97783.66
2022-08-16T05:24:00.128Z,97782.22
2022-08-16T05:26:32.143Z,97785.09
2022-08-16T05:29:03.419Z,97798.28
2022-08-16T05:31:31.884Z,97784.88
2022-08-16T05:34:04.641Z,97785.34
2022-08-16T05:36:36.869Z,97782.41
2022-08-16T05:39:09.761Z,97798.44
2022-08-16T05:41:44.542Z,97798.84
2022-08-16T05:44:23.140Z,97810.44
2022-08-16T05:47:01.153Z,97814.00
2022-08-16T05:49:38.610Z,97810.25
2022-08-16T05:52:11.424Z,97812.31
2022-08-16T05:54:47.129Z,97814.56
2022-08-16T05:57:20.540Z,97814.19
2022-08-16T05:59:50.300Z,97807.69
2022-08-16T06:02:30.696Z,97817.88
2022-08-16T06:05:01.984Z,97820.13
2022-08-16T06:07:29.655Z,97822.91
2022-08-16T06:10:01.450Z,97816.94
2022-08-16T06:12:30.985Z,97814.75
2022-08-16T06:15:15.075Z,97814.19
2022-08-16T06:17:46.408Z,97813.13
2022-08-16T06:20:34.877Z,97820.03
2022-08-16T06:23:16.979Z,97811.56
2022-08-16T06:25:53.251Z,97817.38
2022-08-16T06:28:35.032Z,97811.56
2022-08-16T06:31:05.047Z,97804.75
2022-08-16T06:33:41.902Z,97811.13
2022-08-16T06:36:14.726Z,97813.59
2022-08-16T06:38:56.035Z,97810.09
2022-08-16T06:41:27.338Z,97818.94
2022-08-16T06:43:56.526Z,97819.63
2022-08-16T06:46:39.205Z,97816.88
2022-08-16T06:49:11.849Z,97817.75
2022-08-16T06:51:46.375Z,97820.56
2022-08-16T06:54:16.942Z,97815.56
2022-08-16T06:56:44.769Z,97807.34
2022-08-16T06:59:13.652Z,97818.66
2022-08-16T07:01:54.159Z,97823.94
2022-08-16T07:04:33.420Z,97820.97
2022-08-16T07:07:06.271Z,97815.47
2022-08-16T07:09:37.204Z,97805.56
2022-08-16T07:12:06.177Z,97814.66
2022-08-16T07:14:35.129Z,97816.03
2022-08-16T07:17:11.322Z,97810.03
2022-08-16T07:20:02.480Z,97815.81
2022-08-16T07:22:39.068Z,97805.94
2022-08-16T07:25:14.050Z,97810.66
2022-08-16T07:27:43.593Z,97810.66
2022-08-16T07:30:39.469Z,97815.88
2022-08-16T07:33:06.986Z,97816.44
2022-08-16T07:35:34.831Z,97802.69
2022-08-16T07:38:06.255Z,97808.19
2022-08-16T07:41:00.698Z,97802.44
2022-08-16T07:43:28.790Z,97806.03
2022-08-16T07:45:58.272Z,97803.84
2022-08-16T07:48:27.357Z,97799.97
2022-08-16T07:50:59.621Z,97807.66
2022-08-16T07:53:33.885Z,97814.31
2022-08-16T07:56:11.094Z,97809.63
2022-08-16T07:58:38.491Z,97806.59
2022-08-16T08:01:10.819Z,97811.81
2022-08-16T08:03:49.382Z,97818.72
2022-08-16T08:06:24.736Z,97809.31
2022-08-16T08:08:57.171Z,97822.00
2022-08-16T08:11:30.044Z,97821.44
2022-08-16T08:14:03.731Z,97821.69
2022-08-16T08:16:35.606Z,97833.28
2022-08-16T08:19:04.441Z,97829.94
2022-08-16T08:21:59.806Z,97834.06
2022-08-16T08:24:32.323Z,97835.44
2022-08-16T08:27:05.475Z,97836.78
2022-08-16T08:29:40.520Z,97842.78
2022-08-16T08:32:58.546Z,97843.88
2022-08-16T08:35:00.223Z,97841.94
2022-08-16T08:37:54.411Z,97846.06
2022-08-16T08:40:29.384Z,97834.44
2022-08-16T08:43:12.514Z,97846.53
2022-08-16T08:45:48.477Z,97837.97
2022-08-16T08:48:34.455Z,97842.59
2022-08-16T08:51:10.053Z,97848.69
2022-08-16T08:53:39.736Z,97845.91
2022-08-16T08:56:23.738Z,97838.63
2022-08-16T08:59:00.014Z,97838.03
2022-08-16T09:01:36.745Z,97817.00
2022-08-16T09:04:14.564Z,97816.88
2022-08-16T09:06:45.288Z,97825.44
2022-08-16T09:09:17.163Z,97819.88
2022-08-16T09:11:53.846Z,97829.50
2022-08-16T09:14:33.756Z,97823.09
2022-08-16T09:17:14.201Z,97825.84
2022-08-16T09:19:53.702Z,97824.94
2022-08-16T09:22:28.514Z,97820.22
2022-08-16T09:25:10.966Z,97818.28
2022-08-16T09:27:57.370Z,97826.50
2022-08-16T09:30:34.042Z,97818.06
2022-08-16T09:33:07.607Z,97814.44
2022-08-16T09:35:39.091Z,97820.00
2022-08-16T09:38:08.311Z,97820.63
2022-08-16T09:40:41.797Z,97819.88
2022-08-16T09:43:53.278Z,97817.28
2022-08-16T09:46:45.173Z,97818.88
2022-08-16T09:48:56.705Z,97819.41
2022-08-16T09:51:30.769Z,97811.84
2022-08-16T09:54:09.716Z,97823.66
2022-08-16T09:56:52.523Z,97820.25
2022-08-16T09:59:25.476Z,97819.66
2022-08-16T10:01:58.037Z,97819.59
2022-08-16T10:04:30.185Z,97821.75
2022-08-16T10:07:15.317Z,97817.13
2022-08-16T10:09:55.232Z,97818.00
2022-08-16T10:12:55.825Z,97809.38
2022-08-16T10:15:26.017Z,97816.50
2022-08-16T10:18:01.316Z,97813.69
2022-08-16T10:20:40.947Z,97808.91
2022-08-16T10:23:17.229Z,97807.19
2022-08-16T10:27:16.550Z,97808.16
2022-08-16T10:28:40.236Z,97805.88
2022-08-16T10:31:16.689Z,97799.41
2022-08-16T10:34:01.017Z,97805.09
2022-08-16T10:36:39.103Z,97803.03
2022-08-16T10:39:08.612Z,97801.78
2022-08-16T10:41:36.051Z,97803.25
2022-08-16T10:44:04.478Z,97804.31
2022-08-16T10:46:41.478Z,97799.06
2022-08-16T10:49:18.134Z,97790.84
2022-08-16T10:52:02.717Z,97782.34
2022-08-16T10:54:58.554Z,97790.53
2022-08-16T10:57:24.650Z,97804.44
2022-08-16T10:59:58.278Z,97804.66
2022-08-16T11:03:37.598Z,97798.66
2022-08-16T11:05:17.849Z,97803.38
2022-08-16T11:07:53.619Z,97794.72
2022-08-16T11:19:05.499Z,97776.06
2022-08-16T11:22:22.829Z,97780.47
2022-08-16T11:24:40.069Z,97778.66
2022-08-16T11:27:24.114Z,97773.91
2022-08-16T11:30:00.321Z,97779.03
2022-08-16T11:32:32.208Z,97761.91
2022-08-16T11:38:47.055Z,97768.47
2022-08-16T11:41:08.936Z,97771.53
2022-08-16T11:43:41.841Z,97765.84
2022-08-16T11:46:45.181Z,97761.94
2022-08-16T11:49:11.220Z,97756.03
2022-08-16T11:51:44.733Z,97746.44
2022-08-16T11:54:21.132Z,97742.53
2022-08-16T11:56:56.783Z,97745.47
2022-08-16T11:59:28.682Z,97753.84
2022-08-16T12:02:30.566Z,97754.16
2022-08-16T12:04:51.652Z,97749.72
2022-08-16T12:07:23.676Z,97753.50
2022-08-16T12:09:54.005Z,97737.75
2022-08-16T12:12:23.583Z,97743.44
2022-08-16T12:15:00.108Z,97741.63
2022-08-16T12:17:32.298Z,97735.38
2022-08-16T12:20:05.408Z,97741.59
2022-08-16T12:22:37.796Z,97738.47
2022-08-16T12:25:17.154Z,97735.75
2022-08-16T12:27:49.776Z,97741.09
2022-08-16T12:30:30.308Z,97736.59
2022-08-16T12:33:06.782Z,97734.50
2022-08-16T12:35:39.038Z,97736.53
2022-08-16T12:38:38.173Z,97735.84
2022-08-16T12:40:57.134Z,97742.03
2022-08-16T12:43:25.484Z,97735.72
2022-08-16T12:45:56.115Z,97727.88
2022-08-16T12:48:52.610Z,97731.03
2022-08-16T12:51:58.796Z,97722.66
2022-08-16T12:54:22.445Z,97718.94
2022-08-16T12:56:50.825Z,97719.06
2022-08-16T12:59:20.879Z,97713.19
2022-08-16T13:01:58.151Z,97708.97
2022-08-16T13:04:33.122Z,97707.19
2022-08-16T13:07:08.258Z,97712.50
2022-08-16T13:09:51.824Z,97702.91
2022-08-16T13:12:26.661Z,97713.09
2022-08-16T13:14:55.886Z,97698.72
2022-08-16T13:17:29.799Z,97691.28
2022-08-16T13:20:08.581Z,97687.72
2022-08-16T13:22:51.665Z,97687.47
2022-08-16T13:25:25.790Z,97688.88
2022-08-16T13:28:15.149Z,97689.34
2022-08-16T13:30:55.356Z,97688.28
2022-08-16T13:33:31.674Z,97681.97
2022-08-16T13:36:01.479Z,97688.41
2022-08-16T13:38:36.399Z,97679.19
2022-08-16T13:41:09.537Z,97685.34
2022-08-16T13:43:39.218Z,97676.72
2022-08-16T13:46:08.324Z,97666.84
2022-08-16T13:48:44.060Z,97674.25
2022-08-16T13:51:18.938Z,97680.88
2022-08-16T13:54:02.769Z,97675.59
2022-08-16T13:56:37.978Z,97669.28
2022-08-16T13:59:20.287Z,97665.28
2022-08-16T14:02:02.809Z,97673.19
2022-08-16T14:04:38.260Z,97674.03
2022-08-16T14:07:20.168Z,97669.16
2022-08-16T14:09:55.063Z,97664.50
2022-08-16T14:12:33.754Z,97659.25
2022-08-16T14:15:01.572Z,97660.81
2022-08-16T14:17:31.243Z,97660.47
2022-08-16T14:20:19.268Z,97647.84
2022-08-16T14:22:46.969Z,97654.16
2022-08-16T14:25:23.148Z,97647.00
2022-08-16T14:27:52.205Z,97638.31
2022-08-16T14:30:24.683Z,97637.13
2022-08-16T14:32:53.867Z,97636.28
2022-08-16T14:35:36.452Z,97643.13
2022-08-16T14:38:18.288Z,97638.28
2022-08-16T14:40:54.756Z,97623.34
2022-08-16T14:43:25.446Z,97638.78
2022-08-16T14:45:54.692Z,97628.00
2022-08-16T14:48:26.401Z,97632.88
2022-08-16T14:50:55.718Z,97630.69
2022-08-16T14:53:26.410Z,97624.78
2022-08-16T14:55:54.741Z,97631.28
2022-08-16T14:58:34.822Z,97623.16
2022-08-16T15:01:09.821Z,97616.38
2022-08-16T15:03:38.032Z,97614.03
2022-08-16T15:06:08.477Z,97614.84
2022-08-16T15:08:40.567Z,97614.03
2022-08-16T15:11:10.071Z,97611.84
2022-08-16T15:13:37.835Z,97619.19
2022-08-16T15:16:06.944Z,97616.09
2022-08-16T15:18:34.646Z,97611.09
2022-08-16T15:21:04.792Z,97608.41
2022-08-16T15:23:34.318Z,97601.84
2022-08-16T15:26:04.056Z,97599.50
2022-08-16T15:28:38.860Z,97592.38
2022-08-16T15:31:13.165Z,97599.63
2022-08-16T15:33:56.454Z,97591.94
2022-08-16T15:36:26.421Z,97598.91
2022-08-16T15:39:05.873Z,97595.38
2022-08-16T15:41:47.039Z,97598.59
2022-08-16T15:44:23.681Z,97599.81
2022-08-16T15:46:58.941Z,97599.06
2022-08-16T15:49:34.700Z,97594.00
2022-08-16T15:52:29.763Z,97598.50
2022-08-16T15:55:12.830Z,97594.41
2022-08-16T15:57:51.580Z,97595.25
2022-08-16T16:00:20.749Z,97595.09
2022-08-16T16:02:49.384Z,97588.84
2022-08-16T16:05:18.906Z,97583.25
2022-08-16T16:07:56.700Z,97593.47
2022-08-16T16:10:37.323Z,97603.50
2022-08-16T16:13:12.672Z,97596.06
2022-08-16T16:15:47.865Z,97597.63
2022-08-16T16:18:18.388Z,97594.22
2022-08-16T16:20:55.541Z,97582.78
2022-08-16T16:23:33.978Z,97595.50
2022-08-16T16:26:05.833Z,97587.72
2022-08-16T16:29:06.165Z,97587.97
2022-08-16T16:31:23.167Z,97582.53
2022-08-16T16:33:55.966Z,97579.81
2022-08-16T16:36:29.391Z,97581.63
2022-08-16T16:38:57.150Z,97576.78
2022-08-16T16:41:28.208Z,97578.78
2022-08-16T16:43:57.512Z,97573.06
2022-08-16T16:46:41.123Z,97575.53
2022-08-16T16:49:14.543Z,97569.16
2022-08-16T16:51:44.934Z,97564.25
2022-08-16T16:54:28.045Z,97563.78
2022-08-16T16:56:58.335Z,97558.34
2022-08-16T16:59:28.217Z,97560.66
2022-08-16T17:02:41.454Z,97563.84
2022-08-16T17:04:48.148Z,97559.41
2022-08-16T17:07:17.609Z,97559.19
2022-08-16T17:09:48.173Z,97556.88
2022-08-16T17:12:25.324Z,97554.53
2022-08-16T17:15:03.506Z,97553.94
2022-08-16T17:17:36.189Z,97549.41
2022-08-16T17:20:20.501Z,97558.41
2022-08-16T17:22:55.969Z,97550.34
2022-08-16T17:25:26.052Z,97552.00
2022-08-16T17:30:55.390Z,97546.41
2022-08-16T17:33:22.730Z,97547.53
2022-08-16T17:35:55.694Z,97543.31
2022-08-16T17:38:38.631Z,97542.38
2022-08-16T17:39:28.133Z,97544.75
2022-08-16T17:41:11.762Z,97546.09
2022-08-16T17:43:43.830Z,97541.50
2022-08-16T17:46:41.376Z,97548.81
2022-08-16T17:49:05.080Z,97546.97
2022-08-16T17:51:34.164Z,97547.13
2022-08-16T17:54:03.378Z,97547.63
2022-08-16T17:56:31.520Z,97551.66
2022-08-16T17:58:58.844Z,97552.09
2022-08-16T18:01:28.798Z,97553.66
2022-08-16T18:04:07.803Z,97559.56
2022-08-16T18:06:39.800Z,97568.34
2022-08-16T18:09:08.656Z,97561.06
2022-08-16T18:11:42.958Z,97567.50
2022-08-16T18:14:15.842Z,97562.97
2022-08-16T18:16:45.528Z,97565.28
2022-08-16T18:19:12.886Z,97565.88
2022-08-16T18:21:59.706Z,97574.09
2022-08-16T18:24:29.015Z,97571.19
2022-08-16T18:26:56.521Z,97567.63
2022-08-16T18:29:45.398Z,97562.69
2022-08-16T18:32:13.907Z,97560.59
2022-08-16T18:34:43.004Z,97559.44
2022-08-16T18:37:11.028Z,97556.47
2022-08-16T18:39:38.710Z,97561.41
2022-08-16T18:42:14.712Z,97556.78
2022-08-16T18:44:44.259Z,97560.59
2022-08-16T18:47:11.693Z,97556.00
2022-08-16T18:49:39.189Z,97563.53
2022-08-16T18:52:06.593Z,97548.97
2022-08-16T18:55:03.147Z,97562.41
2022-08-16T18:57:21.989Z,97563.53
2022-08-16T18:59:49.328Z,97564.88
2022-08-16T19:02:56.034Z,97585.66
2022-08-16T19:05:26.639Z,97587.47
2022-08-16T19:07:53.970Z,97594.00
2022-08-16T19:10:22.406Z,97599.41
2022-08-16T19:12:50.043Z,97607.28
2022-08-16T19:15:26.296Z,97610.69
2022-08-16T19:17:55.603Z,97608.50
2022-08-16T19:20:27.133Z,97611.59
2022-08-16T19:23:05.667Z,97615.03
2022-08-16T19:25:49.432Z,97611.09
2022-08-16T19:28:51.553Z,97617.34
2022-08-16T19:31:33.240Z,97622.53
2022-08-16T19:34:02.374Z,97630.72
2022-08-16T19:36:39.118Z,97630.66
2022-08-16T19:39:15.187Z,97633.25
2022-08-16T19:41:53.220Z,97633.06
2022-08-16T19:44:23.323Z,97636.44
2022-08-16T19:46:51.505Z,97631.09
2022-08-16T19:49:18.943Z,97637.31
2022-08-16T19:51:47.953Z,97640.22
2022-08-16T19:54:16.321Z,97637.78
2022-08-16T19:56:43.964Z,97640.03
2022-08-16T19:59:21.129Z,97636.38
2022-08-16T20:01:52.405Z,97641.13
2022-08-16T20:04:22.348Z,97634.94
2022-08-16T20:06:52.538Z,97639.50
2022-08-16T20:09:22.657Z,97641.88
2022-08-16T20:11:53.631Z,97647.03
2022-08-16T20:14:26.277Z,97648.84
2022-08-16T20:16:59.887Z,97645.97
2022-08-16T20:19:36.229Z,97641.09
2022-08-16T20:22:52.925Z,97643.97
2022-08-16T20:25:33.529Z,97648.13
2022-08-16T20:28:09.131Z,97658.34
2022-08-16T20:30:36.789Z,97659.81
2022-08-16T20:33:14.155Z,97656.63
2022-08-16T20:35:44.405Z,97653.03
2022-08-16T20:38:14.080Z,97667.50
2022-08-16T20:40:41.992Z,97663.53
2022-08-16T20:43:16.278Z,97675.53
2022-08-16T20:45:47.064Z,97673.16
2022-08-16T20:48:15.137Z,97684.09
2022-08-16T20:50:43.073Z,97685.03
2022-08-16T20:53:11.570Z,97679.88
2022-08-16T20:55:40.350Z,97680.88
2022-08-16T20:58:07.887Z,97680.19
2022-08-16T21:00:35.336Z,97683.19
2022-08-16T21:03:12.678Z,97679.19
2022-08-16T21:05:40.440Z,97687.06
2022-08-16T21:08:34.421Z,97688.50
2022-08-16T21:10:56.890Z,97682.66
2022-08-16T21:13:25.685Z,97679.38
2022-08-16T21:15:53.333Z,97682.75
2022-08-16T21:18:20.663Z,97678.44
2022-08-16T21:20:48.338Z,97685.94
2022-08-16T21:23:16.298Z,97690.91
2022-08-16T21:25:52.756Z,97688.31
2022-08-16T21:28:41.021Z,97687.00
2022-08-16T21:31:13.118Z,97696.63
2022-08-16T21:33:40.817Z,97697.47
2022-08-16T21:36:09.104Z,97699.00
2022-08-16T21:38:36.497Z,97696.00
2022-08-16T21:41:07.549Z,97692.34
2022-08-16T21:43:35.207Z,97696.38
2022-08-16T21:46:05.764Z,97698.22
2022-08-16T21:48:36.382Z,97698.59
2022-08-16T21:51:16.185Z,97701.91
2022-08-16T21:53:44.417Z,97703.03
2022-08-16T21:56:16.601Z,97697.00
2022-08-16T21:58:52.432Z,97711.63
2022-08-16T22:01:24.672Z,97704.63
2022-08-16T22:04:35.258Z,97707.69
2022-08-16T22:06:42.480Z,97698.56
2022-08-16T22:09:15.270Z,97709.53
2022-08-16T22:11:43.941Z,97700.78
2022-08-16T22:14:11.421Z,97699.13
2022-08-16T22:16:42.589Z,97694.00
2022-08-16T22:19:11.607Z,97691.22
2022-08-16T22:21:39.170Z,97697.59
2022-08-16T22:24:07.340Z,97696.31
2022-08-16T22:26:42.845Z,97693.44
2022-08-16T22:29:14.977Z,97690.69
2022-08-16T22:31:44.126Z,97680.28
2022-08-16T22:34:13.836Z,97682.34
2022-08-16T22:36:41.246Z,97673.50
2022-08-16T22:39:14.759Z,97673.16
2022-08-16T22:41:45.607Z,97675.91
2022-08-16T22:44:13.393Z,97688.31
2022-08-16T22:46:41.171Z,97688.00
2022-08-16T22:49:09.998Z,97697.59
2022-08-16T22:51:39.430Z,97695.34
2022-08-16T22:54:40.984Z,97694.66
2022-08-16T22:56:57.322Z,97704.38
2022-08-16T22:59:25.236Z,97703.19
2022-08-16T23:01:53.642Z,97709.03
2022-08-16T23:04:21.356Z,97703.78
2022-08-16T23:06:49.122Z,97695.19
2022-08-16T23:09:16.497Z,97697.59
2022-08-16T23:11:43.821Z,97696.09
2022-08-16T23:14:11.216Z,97704.84
2022-08-16T23:16:38.786Z,97687.72
2022-08-16T23:19:13.975Z,97696.78
2022-08-16T23:21:48.363Z,97706.78
2022-08-16T23:24:21.409Z,97711.78
2022-08-16T23:26:49.704Z,97729.91
2022-08-16T23:29:24.013Z,97770.22
2022-08-16T23:32:08.694Z,97829.72
2022-08-16T23:34:36.725Z,97821.94
2022-08-16T23:37:04.052Z,97811.22
2022-08-16T23:39:31.408Z,97784.78
2022-08-16T23:41:59.029Z,97778.22
2022-08-16T23:44:55.377Z,97808.72
2022-08-16T23:47:13.638Z,97805.03
2022-08-16T23:49:56.292Z,97795.84
2022-08-16T23:52:45.724Z,97800.78
2022-08-16T23:55:17.549Z,97789.09
2022-08-16T23:57:46.859Z,97783.50
